sensor_id;sensor_type;location;lat;lon;timestamp;pressure;altitude;pressure_sealevel;temperature;humidity
40708;BME280;26392;42.696;23.350;2023-03-20T00:02:51;95626.69;;;5.60;100.00
40708;BME280;26392;42.696;23.350;2023-03-20T00:05:18;95633.78;;;5.54;100.00
40708;BME280;26392;42.696;23.350;2023-03-20T00:07:46;95626.75;;;5.47;100.00
40708;BME280;26392;42.696;23.350;2023-03-20T00:10:14;95627.16;;;5.50;100.00
40708;BME280;26392;42.696;23.350;2023-03-20T00:12:39;95623.41;;;5.51;100.00
40708;BME280;26392;42.696;23.350;2023-03-20T00:15:24;95627.78;;;5.52;100.00
40708;BME280;26392;42.696;23.350;2023-03-20T00:17:51;95627.97;;;5.51;100.00
40708;BME280;26392;42.696;23.350;2023-03-20T00:20:17;95628.47;;;5.41;100.00
40708;BME280;26392;42.696;23.350;2023-03-20T00:22:43;95622.63;;;5.37;100.00
40708;BME280;26392;42.696;23.350;2023-03-20T00:25:15;95624.31;;;5.38;100.00
40708;BME280;26392;42.696;23.350;2023-03-20T00:27:42;95615.59;;;5.36;100.00
40708;BME280;26392;42.696;23.350;2023-03-20T00:32:39;95614.13;;;5.34;100.00
40708;BME280;26392;42.696;23.350;2023-03-20T00:35:16;95604.00;;;5.23;100.00
40708;BME280;26392;42.696;23.350;2023-03-20T00:37:42;95616.69;;;5.22;100.00
40708;BME280;26392;42.696;23.350;2023-03-20T00:40:08;95608.38;;;5.24;100.00
40708;BME280;26392;42.696;23.350;2023-03-20T00:42:35;95609.41;;;5.23;100.00
40708;BME280;26392;42.696;23.350;2023-03-20T00:45:00;95606.72;;;5.23;100.00
40708;BME280;26392;42.696;23.350;2023-03-20T00:47:27;95617.13;;;5.19;100.00
40708;BME280;26392;42.696;23.350;2023-03-20T00:49:53;95615.03;;;5.14;100.00
40708;BME280;26392;42.696;23.350;2023-03-20T00:52:20;95611.13;;;5.10;100.00
40708;BME280;26392;42.696;23.350;2023-03-20T00:54:46;95612.59;;;5.06;100.00
40708;BME280;26392;42.696;23.350;2023-03-20T00:59:50;95606.59;;;4.98;100.00
40708;BME280;26392;42.696;23.350;2023-03-20T01:02:20;95602.88;;;4.99;100.00
40708;BME280;26392;42.696;23.350;2023-03-20T01:04:46;95598.28;;;4.99;100.00
40708;BME280;26392;42.696;23.350;2023-03-20T01:07:13;95597.47;;;4.92;100.00
40708;BME280;26392;42.696;23.350;2023-03-20T01:09:40;95599.53;;;4.90;100.00
40708;BME280;26392;42.696;23.350;2023-03-20T01:12:06;95595.81;;;4.91;100.00
40708;BME280;26392;42.696;23.350;2023-03-20T01:14:34;95596.25;;;4.88;100.00
40708;BME280;26392;42.696;23.350;2023-03-20T01:17:00;95581.94;;;4.87;100.00
40708;BME280;26392;42.696;23.350;2023-03-20T01:19:25;95580.72;;;4.77;100.00
40708;BME280;26392;42.696;23.350;2023-03-20T01:21:51;95576.97;;;4.78;100.00
40708;BME280;26392;42.696;23.350;2023-03-20T01:24:16;95577.19;;;4.76;100.00
40708;BME280;26392;42.696;23.350;2023-03-20T01:26:43;95581.72;;;4.76;100.00
40708;BME280;26392;42.696;23.350;2023-03-20T01:31:41;95576.16;;;4.70;100.00
40708;BME280;26392;42.696;23.350;2023-03-20T01:34:09;95573.69;;;4.62;100.00
40708;BME280;26392;42.696;23.350;2023-03-20T01:36:35;95586.75;;;4.72;100.00
40708;BME280;26392;42.696;23.350;2023-03-20T01:39:01;95593.81;;;4.66;100.00
40708;BME280;26392;42.696;23.350;2023-03-20T01:41:26;95578.66;;;4.59;100.00
40708;BME280;26392;42.696;23.350;2023-03-20T01:43:53;95596.31;;;4.68;100.00
40708;BME280;26392;42.696;23.350;2023-03-20T01:46:28;95588.00;;;4.63;100.00
40708;BME280;26392;42.696;23.350;2023-03-20T01:51:44;95595.28;;;4.56;100.00
40708;BME280;26392;42.696;23.350;2023-03-20T01:54:18;95598.59;;;4.58;100.00
40708;BME280;26392;42.696;23.350;2023-03-20T01:56:56;95603.19;;;4.57;100.00
40708;BME280;26392;42.696;23.350;2023-03-20T01:59:30;95598.38;;;4.59;100.00
40708;BME280;26392;42.696;23.350;2023-03-20T02:01:57;95598.59;;;4.58;100.00
40708;BME280;26392;42.696;23.350;2023-03-20T02:04:26;95597.16;;;4.55;100.00
40708;BME280;26392;42.696;23.350;2023-03-20T02:06:54;95598.00;;;4.49;100.00
40708;BME280;26392;42.696;23.350;2023-03-20T02:09:20;95597.59;;;4.32;100.00
40708;BME280;26392;42.696;23.350;2023-03-20T02:11:46;95595.94;;;4.31;100.00
40708;BME280;26392;42.696;23.350;2023-03-20T02:14:12;95589.72;;;4.31;100.00
40708;BME280;26392;42.696;23.350;2023-03-20T02:16:38;95591.81;;;4.29;100.00
40708;BME280;26392;42.696;23.350;2023-03-20T02:19:07;95586.41;;;4.35;100.00
40708;BME280;26392;42.696;23.350;2023-03-20T02:27:32;95590.56;;;4.18;100.00
40708;BME280;26392;42.696;23.350;2023-03-20T02:36:01;95603.22;;;4.11;100.00
40708;BME280;26392;42.696;23.350;2023-03-20T02:44:00;95588.69;;;4.05;100.00
40708;BME280;26392;42.696;23.350;2023-03-20T02:49:32;95580.59;;;4.05;100.00
40708;BME280;26392;42.696;23.350;2023-03-20T02:52:21;95577.69;;;4.00;100.00
40708;BME280;26392;42.696;23.350;2023-03-20T02:55:12;95571.91;;;3.96;100.00
40708;BME280;26392;42.696;23.350;2023-03-20T03:02:47;95583.09;;;4.00;100.00
40708;BME280;26392;42.696;23.350;2023-03-20T03:05:21;95584.13;;;3.99;100.00
40708;BME280;26392;42.696;23.350;2023-03-20T03:07:50;95579.78;;;3.98;100.00
40708;BME280;26392;42.696;23.350;2023-03-20T03:10:21;95585.19;;;3.98;100.00
40708;BME280;26392;42.696;23.350;2023-03-20T03:12:48;95578.34;;;3.95;100.00
40708;BME280;26392;42.696;23.350;2023-03-20T03:15:22;95586.41;;;4.02;100.00
40708;BME280;26392;42.696;23.350;2023-03-20T03:17:50;95575.22;;;3.98;100.00
40708;BME280;26392;42.696;23.350;2023-03-20T03:20:30;95581.44;;;3.99;100.00
40708;BME280;26392;42.696;23.350;2023-03-20T03:22:57;95570.44;;;4.00;100.00
40708;BME280;26392;42.696;23.350;2023-03-20T03:25:26;95576.47;;;3.96;100.00
40708;BME280;26392;42.696;23.350;2023-03-20T03:28:11;95579.78;;;3.85;100.00
40708;BME280;26392;42.696;23.350;2023-03-20T03:30:43;95583.94;;;3.87;100.00
40708;BME280;26392;42.696;23.350;2023-03-20T03:35:37;95584.97;;;3.93;100.00
40708;BME280;26392;42.696;23.350;2023-03-20T03:43:43;95579.78;;;3.91;100.00
40708;BME280;26392;42.696;23.350;2023-03-20T03:46:15;95582.06;;;3.88;100.00
40708;BME280;26392;42.696;23.350;2023-03-20T03:48:52;95583.28;;;3.92;100.00
40708;BME280;26392;42.696;23.350;2023-03-20T03:51:22;95588.09;;;3.90;100.00
40708;BME280;26392;42.696;23.350;2023-03-20T03:53:54;95583.09;;;3.93;100.00
40708;BME280;26392;42.696;23.350;2023-03-20T03:56:24;95574.19;;;3.93;100.00
40708;BME280;26392;42.696;23.350;2023-03-20T03:58:54;95582.28;;;3.93;100.00
40708;BME280;26392;42.696;23.350;2023-03-20T04:01:22;95574.19;;;3.93;100.00
40708;BME280;26392;42.696;23.350;2023-03-20T04:03:53;95574.81;;;3.88;100.00
40708;BME280;26392;42.696;23.350;2023-03-20T04:06:21;95576.06;;;3.79;100.00
40708;BME280;26392;42.696;23.350;2023-03-20T04:08:46;95564.88;;;3.75;100.00
40708;BME280;26392;42.696;23.350;2023-03-20T04:11:18;95569.41;;;3.75;100.00
40708;BME280;26392;42.696;23.350;2023-03-20T04:13:48;95562.38;;;3.67;100.00
40708;BME280;26392;42.696;23.350;2023-03-20T04:16:15;95569.81;;;3.72;100.00
40708;BME280;26392;42.696;23.350;2023-03-20T04:18:41;95559.25;;;3.70;100.00
40708;BME280;26392;42.696;23.350;2023-03-20T04:21:07;95559.03;;;3.72;100.00
40708;BME280;26392;42.696;23.350;2023-03-20T04:23:33;95563.19;;;3.74;100.00
40708;BME280;26392;42.696;23.350;2023-03-20T04:25:58;95563.59;;;3.71;100.00
40708;BME280;26392;42.696;23.350;2023-03-20T04:28:24;95556.13;;;3.67;100.00
40708;BME280;26392;42.696;23.350;2023-03-20T04:30:54;95552.59;;;3.59;100.00
40708;BME280;26392;42.696;23.350;2023-03-20T04:33:20;95561.50;;;3.60;100.00
40708;BME280;26392;42.696;23.350;2023-03-20T04:35:45;95553.44;;;3.53;100.00
40708;BME280;26392;42.696;23.350;2023-03-20T04:38:12;95568.53;;;3.41;100.00
40708;BME280;26392;42.696;23.350;2023-03-20T04:40:37;95575.78;;;3.47;100.00
40708;BME280;26392;42.696;23.350;2023-03-20T04:43:03;95573.91;;;3.28;100.00
40708;BME280;26392;42.696;23.350;2023-03-20T04:45:29;95570.56;;;3.26;100.00
40708;BME280;26392;42.696;23.350;2023-03-20T04:47:54;95580.13;;;3.28;100.00
40708;BME280;26392;42.696;23.350;2023-03-20T04:50:20;95580.06;;;3.15;100.00
40708;BME280;26392;42.696;23.350;2023-03-20T04:52:46;95592.88;;;3.06;100.00
40708;BME280;26392;42.696;23.350;2023-03-20T04:55:11;95590.66;;;3.17;100.00
40708;BME280;26392;42.696;23.350;2023-03-20T04:57:37;95597.91;;;3.29;100.00
40708;BME280;26392;42.696;23.350;2023-03-20T05:00:03;95597.97;;;3.43;100.00
40708;BME280;26392;42.696;23.350;2023-03-20T05:02:28;95593.03;;;3.59;100.00
40708;BME280;26392;42.696;23.350;2023-03-20T05:04:54;95596.16;;;3.70;100.00
40708;BME280;26392;42.696;23.350;2023-03-20T05:07:20;95592.63;;;3.89;100.00
40708;BME280;26392;42.696;23.350;2023-03-20T05:09:45;95602.59;;;4.09;100.00
40708;BME280;26392;42.696;23.350;2023-03-20T05:12:11;95607.56;;;4.25;100.00
40708;BME280;26392;42.696;23.350;2023-03-20T05:14:36;95600.69;;;4.42;100.00
40708;BME280;26392;42.696;23.350;2023-03-20T05:17:02;95594.88;;;4.52;100.00
40708;BME280;26392;42.696;23.350;2023-03-20T05:19:27;95605.25;;;4.55;100.00
40708;BME280;26392;42.696;23.350;2023-03-20T05:21:53;95611.88;;;4.59;100.00
40708;BME280;26392;42.696;23.350;2023-03-20T05:24:18;95615.81;;;4.63;100.00
40708;BME280;26392;42.696;23.350;2023-03-20T05:26:44;95599.00;;;4.68;100.00
40708;BME280;26392;42.696;23.350;2023-03-20T05:29:09;95605.44;;;4.67;100.00
40708;BME280;26392;42.696;23.350;2023-03-20T05:31:35;95608.13;;;4.74;100.00
40708;BME280;26392;42.696;23.350;2023-03-20T05:34:00;95613.31;;;4.82;100.00
40708;BME280;26392;42.696;23.350;2023-03-20T05:36:25;95604.94;;;4.90;100.00
40708;BME280;26392;42.696;23.350;2023-03-20T05:38:51;95617.22;;;4.86;100.00
40708;BME280;26392;42.696;23.350;2023-03-20T05:41:16;95615.56;;;4.91;100.00
40708;BME280;26392;42.696;23.350;2023-03-20T05:43:42;95612.41;;;4.94;100.00
40708;BME280;26392;42.696;23.350;2023-03-20T05:46:07;95609.53;;;4.89;100.00
40708;BME280;26392;42.696;23.350;2023-03-20T05:48:33;95621.16;;;4.97;100.00
40708;BME280;26392;42.696;23.350;2023-03-20T05:50:58;95603.69;;;4.99;100.00
40708;BME280;26392;42.696;23.350;2023-03-20T05:53:23;95616.28;;;5.19;100.00
40708;BME280;26392;42.696;23.350;2023-03-20T05:55:49;95615.19;;;5.33;100.00
40708;BME280;26392;42.696;23.350;2023-03-20T05:58:15;95609.94;;;5.45;100.00
40708;BME280;26392;42.696;23.350;2023-03-20T06:00:40;95620.31;;;5.48;100.00
40708;BME280;26392;42.696;23.350;2023-03-20T06:03:06;95621.72;;;5.57;100.00
40708;BME280;26392;42.696;23.350;2023-03-20T06:05:32;95615.66;;;5.61;100.00
40708;BME280;26392;42.696;23.350;2023-03-20T06:07:58;95605.16;;;5.78;100.00
40708;BME280;26392;42.696;23.350;2023-03-20T06:10:23;95626.47;;;6.00;100.00
40708;BME280;26392;42.696;23.350;2023-03-20T06:12:49;95614.66;;;5.94;100.00
40708;BME280;26392;42.696;23.350;2023-03-20T06:15:14;95622.78;;;5.94;100.00
40708;BME280;26392;42.696;23.350;2023-03-20T06:17:40;95625.91;;;5.84;100.00
40708;BME280;26392;42.696;23.350;2023-03-20T06:20:06;95625.97;;;5.78;100.00
40708;BME280;26392;42.696;23.350;2023-03-20T06:22:32;95619.47;;;5.86;100.00
40708;BME280;26392;42.696;23.350;2023-03-20T06:24:57;95620.63;;;6.03;100.00
40708;BME280;26392;42.696;23.350;2023-03-20T06:27:23;95621.19;;;6.12;100.00
40708;BME280;26392;42.696;23.350;2023-03-20T06:29:48;95623.97;;;5.98;100.00
40708;BME280;26392;42.696;23.350;2023-03-20T06:32:14;95612.91;;;6.07;100.00
40708;BME280;26392;42.696;23.350;2023-03-20T06:34:41;95627.59;;;6.42;100.00
40708;BME280;26392;42.696;23.350;2023-03-20T06:37:06;95611.84;;;6.58;100.00
40708;BME280;26392;42.696;23.350;2023-03-20T06:39:32;95618.66;;;6.85;100.00
40708;BME280;26392;42.696;23.350;2023-03-20T06:41:57;95617.16;;;7.08;100.00
40708;BME280;26392;42.696;23.350;2023-03-20T06:44:23;95627.25;;;7.19;98.92
40708;BME280;26392;42.696;23.350;2023-03-20T06:46:48;95627.69;;;7.16;97.83
40708;BME280;26392;42.696;23.350;2023-03-20T06:49:14;95618.03;;;7.38;96.25
40708;BME280;26392;42.696;23.350;2023-03-20T06:51:41;95620.53;;;7.40;94.67
40708;BME280;26392;42.696;23.350;2023-03-20T06:54:06;95615.00;;;7.65;92.83
40708;BME280;26392;42.696;23.350;2023-03-20T06:56:31;95607.41;;;7.55;92.45
40708;BME280;26392;42.696;23.350;2023-03-20T06:58:57;95605.25;;;7.76;90.82
40708;BME280;26392;42.696;23.350;2023-03-20T07:01:22;95597.63;;;7.84;87.75
40708;BME280;26392;42.696;23.350;2023-03-20T07:03:48;95598.41;;;8.15;87.36
40708;BME280;26392;42.696;23.350;2023-03-20T07:06:14;95607.88;;;8.36;84.50
40708;BME280;26392;42.696;23.350;2023-03-20T07:08:40;95599.31;;;8.51;83.15
40708;BME280;26392;42.696;23.350;2023-03-20T07:11:06;95595.78;;;8.74;81.62
40708;BME280;26392;42.696;23.350;2023-03-20T07:13:32;95600.00;;;8.82;80.51
40708;BME280;26392;42.696;23.350;2023-03-20T07:15:59;95604.13;;;8.96;78.77
40708;BME280;26392;42.696;23.350;2023-03-20T07:18:25;95593.88;;;8.98;77.43
40708;BME280;26392;42.696;23.350;2023-03-20T07:20:51;95587.38;;;8.99;77.84
40708;BME280;26392;42.696;23.350;2023-03-20T07:23:17;95590.19;;;9.16;76.53
40708;BME280;26392;42.696;23.350;2023-03-20T07:25:42;95585.28;;;9.30;75.67
40708;BME280;26392;42.696;23.350;2023-03-20T07:28:10;95598.44;;;9.33;74.90
40708;BME280;26392;42.696;23.350;2023-03-20T07:30:35;95592.50;;;9.36;76.05
40708;BME280;26392;42.696;23.350;2023-03-20T07:33:01;95598.13;;;9.46;74.53
40708;BME280;26392;42.696;23.350;2023-03-20T07:35:26;95597.91;;;9.48;74.94
40708;BME280;26392;42.696;23.350;2023-03-20T07:37:52;95601.13;;;9.73;74.16
40708;BME280;26392;42.696;23.350;2023-03-20T07:40:17;95603.03;;;9.73;72.69
40708;BME280;26392;42.696;23.350;2023-03-20T07:42:44;95604.28;;;9.82;72.35
40708;BME280;26392;42.696;23.350;2023-03-20T07:45:11;95595.22;;;9.93;71.57
40708;BME280;26392;42.696;23.350;2023-03-20T07:47:38;95593.66;;;9.80;71.31
40708;BME280;26392;42.696;23.350;2023-03-20T07:50:04;95604.38;;;9.87;71.15
40708;BME280;26392;42.696;23.350;2023-03-20T07:52:30;95606.56;;;10.02;70.06
40708;BME280;26392;42.696;23.350;2023-03-20T07:54:55;95602.84;;;10.08;69.15
40708;BME280;26392;42.696;23.350;2023-03-20T07:57:20;95602.06;;;10.24;68.02
40708;BME280;26392;42.696;23.350;2023-03-20T07:59:46;95604.06;;;10.29;67.42
40708;BME280;26392;42.696;23.350;2023-03-20T08:02:15;95598.63;;;10.29;67.13
40708;BME280;26392;42.696;23.350;2023-03-20T08:04:41;95598.22;;;10.54;65.86
40708;BME280;26392;42.696;23.350;2023-03-20T08:07:07;95588.72;;;10.73;65.19
40708;BME280;26392;42.696;23.350;2023-03-20T08:09:33;95596.59;;;10.92;64.00
40708;BME280;26392;42.696;23.350;2023-03-20T08:11:58;95596.06;;;10.90;63.55
40708;BME280;26392;42.696;23.350;2023-03-20T08:14:23;95591.50;;;10.95;63.23
40708;BME280;26392;42.696;23.350;2023-03-20T08:16:49;95584.53;;;11.05;63.15
40708;BME280;26392;42.696;23.350;2023-03-20T08:19:14;95586.25;;;11.11;62.60
40708;BME280;26392;42.696;23.350;2023-03-20T08:21:40;95583.78;;;11.31;61.85
40708;BME280;26392;42.696;23.350;2023-03-20T08:24:06;95593.28;;;11.46;61.18
40708;BME280;26392;42.696;23.350;2023-03-20T08:26:31;95595.66;;;11.42;60.61
40708;BME280;26392;42.696;23.350;2023-03-20T08:28:57;95594.47;;;11.55;60.89
40708;BME280;26392;42.696;23.350;2023-03-20T08:31:23;95592.03;;;11.58;60.43
40708;BME280;26392;42.696;23.350;2023-03-20T08:33:49;95595.66;;;11.64;59.77
40708;BME280;26392;42.696;23.350;2023-03-20T08:36:15;95592.41;;;11.67;60.13
40708;BME280;26392;42.696;23.350;2023-03-20T08:38:43;95594.34;;;11.89;59.31
40708;BME280;26392;42.696;23.350;2023-03-20T08:41:09;95593.16;;;11.84;59.41
40708;BME280;26392;42.696;23.350;2023-03-20T08:43:34;95593.59;;;11.93;58.97
40708;BME280;26392;42.696;23.350;2023-03-20T08:46:00;95588.53;;;11.85;59.43
40708;BME280;26392;42.696;23.350;2023-03-20T08:48:25;95588.78;;;11.83;59.83
40708;BME280;26392;42.696;23.350;2023-03-20T08:50:51;95590.34;;;11.96;59.03
40708;BME280;26392;42.696;23.350;2023-03-20T08:53:16;95585.88;;;12.17;58.13
40708;BME280;26392;42.696;23.350;2023-03-20T08:55:49;95586.28;;;12.31;57.70
40708;BME280;26392;42.696;23.350;2023-03-20T08:58:15;95585.59;;;12.46;56.50
40708;BME280;26392;42.696;23.350;2023-03-20T09:00:41;95582.03;;;12.45;55.32
40708;BME280;26392;42.696;23.350;2023-03-20T09:03:11;95567.66;;;12.55;55.00
40708;BME280;26392;42.696;23.350;2023-03-20T09:05:39;95578.13;;;12.68;54.09
40708;BME280;26392;42.696;23.350;2023-03-20T09:08:04;95576.78;;;12.71;53.83
40708;BME280;26392;42.696;23.350;2023-03-20T09:10:29;95575.47;;;12.79;53.63
40708;BME280;26392;42.696;23.350;2023-03-20T09:12:55;95577.25;;;13.00;53.33
40708;BME280;26392;42.696;23.350;2023-03-20T09:15:20;95576.28;;;13.16;52.79
40708;BME280;26392;42.696;23.350;2023-03-20T09:17:46;95564.81;;;13.19;52.59
40708;BME280;26392;42.696;23.350;2023-03-20T09:20:11;95561.06;;;13.31;52.64
40708;BME280;26392;42.696;23.350;2023-03-20T09:22:37;95563.78;;;13.31;52.20
40708;BME280;26392;42.696;23.350;2023-03-20T09:25:05;95563.78;;;13.36;52.36
40708;BME280;26392;42.696;23.350;2023-03-20T09:27:31;95557.59;;;13.51;51.48
40708;BME280;26392;42.696;23.350;2023-03-20T09:29:57;95555.72;;;13.61;51.38
40708;BME280;26392;42.696;23.350;2023-03-20T09:32:22;95543.91;;;13.61;50.59
40708;BME280;26392;42.696;23.350;2023-03-20T09:34:47;95553.53;;;13.69;50.44
40708;BME280;26392;42.696;23.350;2023-03-20T09:37:13;95542.09;;;13.87;50.45
40708;BME280;26392;42.696;23.350;2023-03-20T09:39:38;95539.88;;;13.89;49.91
40708;BME280;26392;42.696;23.350;2023-03-20T09:44:54;95534.69;;;13.82;50.11
40708;BME280;26392;42.696;23.350;2023-03-20T09:47:43;95529.50;;;13.96;49.46
40708;BME280;26392;42.696;23.350;2023-03-20T09:50:31;95515.81;;;13.96;49.57
40708;BME280;26392;42.696;23.350;2023-03-20T09:53:21;95506.53;;;14.18;49.36
40708;BME280;26392;42.696;23.350;2023-03-20T09:55:51;95503.78;;;14.48;48.96
40708;BME280;26392;42.696;23.350;2023-03-20T09:58:27;95490.59;;;14.81;48.26
40708;BME280;26392;42.696;23.350;2023-03-20T10:00:55;95482.03;;;15.08;47.59
40708;BME280;26392;42.696;23.350;2023-03-20T10:03:38;95481.94;;;15.34;47.04
40708;BME280;26392;42.696;23.350;2023-03-20T10:06:11;95476.16;;;15.40;46.26
40708;BME280;26392;42.696;23.350;2023-03-20T10:08:38;95472.03;;;15.38;46.29
40708;BME280;26392;42.696;23.350;2023-03-20T10:21:48;95454.63;;;15.63;45.85
40708;BME280;26392;42.696;23.350;2023-03-20T10:24:35;95450.19;;;15.67;45.48
40708;BME280;26392;42.696;23.350;2023-03-20T10:30:27;95444.25;;;15.99;44.71
40708;BME280;26392;42.696;23.350;2023-03-20T10:35:55;95446.25;;;16.23;44.57
40708;BME280;26392;42.696;23.350;2023-03-20T10:40:59;95433.09;;;16.49;43.17
40708;BME280;26392;42.696;23.350;2023-03-20T10:43:35;95436.75;;;16.68;43.27
40708;BME280;26392;42.696;23.350;2023-03-20T10:46:27;95430.19;;;16.93;42.27
40708;BME280;26392;42.696;23.350;2023-03-20T10:48:59;95411.56;;;17.09;41.68
40708;BME280;26392;42.696;23.350;2023-03-20T10:51:53;95414.88;;;17.30;41.23
40708;BME280;26392;42.696;23.350;2023-03-20T10:54:41;95415.72;;;17.50;40.24
40708;BME280;26392;42.696;23.350;2023-03-20T10:57:30;95407.75;;;17.67;39.95
40708;BME280;26392;42.696;23.350;2023-03-20T10:59:58;95409.03;;;17.75;39.04
40708;BME280;26392;42.696;23.350;2023-03-20T11:02:28;95411.13;;;17.83;39.19
40708;BME280;26392;42.696;23.350;2023-03-20T11:04:54;95400.66;;;17.85;38.99
40708;BME280;26392;42.696;23.350;2023-03-20T11:10:12;95398.44;;;18.01;39.61
40708;BME280;26392;42.696;23.350;2023-03-20T11:12:43;95392.13;;;18.00;38.67
40708;BME280;26392;42.696;23.350;2023-03-20T11:15:24;95385.44;;;18.06;38.77
40708;BME280;26392;42.696;23.350;2023-03-20T11:20:20;95373.44;;;18.30;37.89
40708;BME280;26392;42.696;23.350;2023-03-20T11:22:48;95373.13;;;18.31;37.23
40708;BME280;26392;42.696;23.350;2023-03-20T11:25:24;95367.75;;;18.40;37.40
40708;BME280;26392;42.696;23.350;2023-03-20T11:27:53;95354.06;;;18.49;37.57
40708;BME280;26392;42.696;23.350;2023-03-20T11:30:19;95348.75;;;18.52;37.17
40708;BME280;26392;42.696;23.350;2023-03-20T11:32:46;95355.09;;;18.67;37.02
40708;BME280;26392;42.696;23.350;2023-03-20T11:37:52;95341.44;;;18.75;36.13
40708;BME280;26392;42.696;23.350;2023-03-20T11:40:29;95330.59;;;18.65;35.45
40708;BME280;26392;42.696;23.350;2023-03-20T11:43:02;95329.75;;;18.65;35.32
40708;BME280;26392;42.696;23.350;2023-03-20T11:45:55;95327.50;;;18.67;35.32
40708;BME280;26392;42.696;23.350;2023-03-20T11:48:36;95323.97;;;18.94;35.01
40708;BME280;26392;42.696;23.350;2023-03-20T11:51:04;95315.97;;;19.06;35.59
40708;BME280;26392;42.696;23.350;2023-03-20T11:54:19;95306.63;;;19.30;35.15
40708;BME280;26392;42.696;23.350;2023-03-20T11:56:22;95305.13;;;19.46;34.78
40708;BME280;26392;42.696;23.350;2023-03-20T12:01:26;95299.53;;;19.37;32.44
40708;BME280;26392;42.696;23.350;2023-03-20T12:06:40;95277.84;;;19.44;32.55
40708;BME280;26392;42.696;23.350;2023-03-20T12:09:43;95287.97;;;19.72;31.71
40708;BME280;26392;42.696;23.350;2023-03-20T12:12:38;95285.63;;;19.65;32.12
40708;BME280;26392;42.696;23.350;2023-03-20T12:26:11;95264.41;;;19.97;28.63
40708;BME280;26392;42.696;23.350;2023-03-20T12:31:47;95258.69;;;20.24;28.16
40708;BME280;26392;42.696;23.350;2023-03-20T12:34:21;95264.44;;;20.28;28.27
40708;BME280;26392;42.696;23.350;2023-03-20T12:36:49;95261.97;;;20.26;28.08
40708;BME280;26392;42.696;23.350;2023-03-20T12:39:21;95253.25;;;20.42;27.68
40708;BME280;26392;42.696;23.350;2023-03-20T12:49:57;95230.06;;;20.60;26.83
40708;BME280;26392;42.696;23.350;2023-03-20T12:55:33;95227.19;;;20.74;26.71
40708;BME280;26392;42.696;23.350;2023-03-20T13:01:01;95231.09;;;20.73;27.16
40708;BME280;26392;42.696;23.350;2023-03-20T13:09:32;95213.84;;;20.76;26.49
40708;BME280;26392;42.696;23.350;2023-03-20T13:12:14;95212.25;;;20.92;26.55
40708;BME280;26392;42.696;23.350;2023-03-20T13:24:50;95199.44;;;21.40;26.02
40708;BME280;26392;42.696;23.350;2023-03-20T13:30:06;95185.72;;;21.17;25.72
40708;BME280;26392;42.696;23.350;2023-03-20T13:38:11;95172.03;;;21.38;26.63
40708;BME280;26392;42.696;23.350;2023-03-20T13:40:40;95168.88;;;21.31;26.70
40708;BME280;26392;42.696;23.350;2023-03-20T13:46:08;95162.56;;;21.48;26.71
40708;BME280;26392;42.696;23.350;2023-03-20T13:48:37;95163.34;;;21.31;26.16
40708;BME280;26392;42.696;23.350;2023-03-20T13:53:59;95152.75;;;21.33;26.11
40708;BME280;26392;42.696;23.350;2023-03-20T14:02:12;95156.66;;;21.67;24.98
40708;BME280;26392;42.696;23.350;2023-03-20T14:04:42;95141.91;;;21.93;25.31
40708;BME280;26392;42.696;23.350;2023-03-20T14:07:37;95146.91;;;22.08;24.29
40708;BME280;26392;42.696;23.350;2023-03-20T14:12:59;95140.50;;;22.54;24.39
40708;BME280;26392;42.696;23.350;2023-03-20T14:15:36;95134.31;;;22.49;23.69
40708;BME280;26392;42.696;23.350;2023-03-20T14:18:11;95131.91;;;22.47;23.81
40708;BME280;26392;42.696;23.350;2023-03-20T14:20:39;95129.72;;;22.23;23.93
40708;BME280;26392;42.696;23.350;2023-03-20T14:23:17;95128.06;;;22.31;23.75
40708;BME280;26392;42.696;23.350;2023-03-20T14:25:46;95115.03;;;22.23;23.89
40708;BME280;26392;42.696;23.350;2023-03-20T14:30:44;95116.69;;;22.24;23.73
40708;BME280;26392;42.696;23.350;2023-03-20T14:35:44;95112.88;;;22.28;23.62
40708;BME280;26392;42.696;23.350;2023-03-20T14:43:35;95110.72;;;22.64;22.94
40708;BME280;26392;42.696;23.350;2023-03-20T14:46:42;95102.53;;;22.67;23.29
40708;BME280;26392;42.696;23.350;2023-03-20T14:51:59;95108.75;;;22.64;23.69
40708;BME280;26392;42.696;23.350;2023-03-20T14:54:33;95111.47;;;22.52;24.24
40708;BME280;26392;42.696;23.350;2023-03-20T14:57:15;95110.88;;;22.38;24.49
40708;BME280;26392;42.696;23.350;2023-03-20T14:59:41;95109.84;;;22.21;24.74
40708;BME280;26392;42.696;23.350;2023-03-20T15:02:24;95103.00;;;22.10;23.72
40708;BME280;26392;42.696;23.350;2023-03-20T15:04:50;95109.72;;;22.00;23.31
40708;BME280;26392;42.696;23.350;2023-03-20T15:07:24;95100.19;;;21.80;23.62
40708;BME280;26392;42.696;23.350;2023-03-20T15:09:53;95104.19;;;21.53;24.05
40708;BME280;26392;42.696;23.350;2023-03-20T15:12:22;95103.69;;;21.34;23.93
40708;BME280;26392;42.696;23.350;2023-03-20T15:14:56;95099.66;;;21.14;24.35
40708;BME280;26392;42.696;23.350;2023-03-20T15:17:24;95106.81;;;20.97;24.39
40708;BME280;26392;42.696;23.350;2023-03-20T15:20:00;95105.88;;;20.76;24.65
40708;BME280;26392;42.696;23.350;2023-03-20T15:22:26;95110.41;;;20.72;24.83
40708;BME280;26392;42.696;23.350;2023-03-20T15:24:54;95107.97;;;20.53;24.98
40708;BME280;26392;42.696;23.350;2023-03-20T15:27:20;95106.94;;;20.49;24.96
40708;BME280;26392;42.696;23.350;2023-03-20T15:29:50;95098.94;;;20.39;25.17
40708;BME280;26392;42.696;23.350;2023-03-20T15:32:16;95094.19;;;20.30;25.01
40708;BME280;26392;42.696;23.350;2023-03-20T15:34:45;95090.81;;;20.42;25.16
40708;BME280;26392;42.696;23.350;2023-03-20T15:37:17;95103.00;;;20.41;25.53
40708;BME280;26392;42.696;23.350;2023-03-20T15:39:50;95102.03;;;20.37;25.47
40708;BME280;26392;42.696;23.350;2023-03-20T15:42:19;95099.59;;;20.35;25.81